createdAt,value
2023-05-05T00:00:42.665Z,101630.53
2023-05-05T00:03:27.138Z,101627.34
2023-05-05T00:06:10.806Z,101622.31
2023-05-05T00:08:55.272Z,101623.47
2023-05-05T00:11:38.732Z,101619.75
2023-05-05T00:14:22.203Z,101623.94
2023-05-05T00:17:05.812Z,101630.06
2023-05-05T00:19:49.649Z,101622.34
2023-05-05T00:22:33.173Z,101625.06
2023-05-05T00:25:16.671Z,101621.53
2023-05-05T00:28:00.475Z,101621.69
2023-05-05T00:30:44.108Z,101619.59
2023-05-05T00:33:27.901Z,101612.34
2023-05-05T00:36:11.554Z,101605.41
2023-05-05T00:38:55.059Z,101614.75
2023-05-05T00:41:38.660Z,101608.16
2023-05-05T00:44:41.834Z,101605.56
2023-05-05T00:47:25.715Z,101606.22
2023-05-05T00:50:10.985Z,101602.00
2023-05-05T00:53:00.468Z,101599.44
2023-05-05T00:55:44.026Z,101600.56
2023-05-05T00:58:30.528Z,101590.22
2023-05-05T01:01:15.653Z,101590.66
2023-05-05T01:03:59.370Z,101594.88
2023-05-05T01:06:59.678Z,101590.50
2023-05-05T01:10:24.948Z,101588.13
2023-05-05T01:13:40.876Z,101587.97
2023-05-05T01:16:29.878Z,101592.25
2023-05-05T01:20:04.598Z,101586.91
2023-05-05T01:22:57.763Z,101589.94
2023-05-05T01:26:22.197Z,101586.78
2023-05-05T01:29:38.575Z,101579.91
2023-05-05T01:32:34.064Z,101582.47
2023-05-05T01:35:28.738Z,101576.34
2023-05-05T01:38:40.698Z,101581.50
2023-05-05T01:41:50.436Z,101583.94
2023-05-05T01:44:38.276Z,101585.63
2023-05-05T01:47:23.270Z,101584.38
2023-05-05T01:50:09.335Z,101586.78
2023-05-05T01:52:56.662Z,101585.47
2023-05-05T01:55:42.070Z,101585.03
2023-05-05T01:58:30.096Z,101583.06
2023-05-05T02:01:15.589Z,101585.53
2023-05-05T02:04:02.147Z,101576.63
2023-05-05T02:06:51.705Z,101579.81
2023-05-05T02:09:37.186Z,101575.75
2023-05-05T02:12:22.853Z,101576.28
2023-05-05T02:15:08.272Z,101574.09
2023-05-05T02:17:53.163Z,101576.44
2023-05-05T02:20:39.899Z,101582.47
2023-05-05T02:23:23.679Z,101573.81
2023-05-05T02:26:11.632Z,101573.19
2023-05-05T02:29:07.586Z,101583.78
2023-05-05T02:31:58.587Z,101581.19
2023-05-05T02:34:48.276Z,101583.84
2023-05-05T02:37:36.137Z,101582.22
2023-05-05T02:40:26.415Z,101591.66
2023-05-05T02:43:18.206Z,101580.22
2023-05-05T02:46:02.486Z,101577.53
2023-05-05T02:48:47.551Z,101577.84
2023-05-05T02:51:32.746Z,101581.97
2023-05-05T02:54:21.400Z,101576.13
2023-05-05T02:57:05.010Z,101578.38
2023-05-05T03:00:16.472Z,101580.72
2023-05-05T03:03:18.577Z,101584.72
2023-05-05T03:06:27.435Z,101586.81
2023-05-05T03:09:32.543Z,101576.84
2023-05-05T03:12:22.560Z,101583.84
2023-05-05T03:15:22.881Z,101587.69
2023-05-05T03:18:10.993Z,101578.81
2023-05-05T03:20:57.368Z,101579.94
2023-05-05T03:23:41.073Z,101582.78
2023-05-05T03:26:32.249Z,101582.28
2023-05-05T03:29:16.864Z,101574.38
2023-05-05T03:32:01.767Z,101578.31
2023-05-05T03:34:46.532Z,101580.13
2023-05-05T03:37:30.193Z,101577.13
2023-05-05T03:40:14.541Z,101582.66
2023-05-05T03:42:58.412Z,101582.22
2023-05-05T03:45:42.645Z,101584.47
2023-05-05T03:48:26.487Z,101583.16
2023-05-05T03:51:10.228Z,101578.19
2023-05-05T03:53:53.935Z,101581.97
2023-05-05T03:56:37.662Z,101576.94
2023-05-05T03:59:21.259Z,101576.69
2023-05-05T04:02:04.872Z,101577.69
2023-05-05T04:04:48.406Z,101577.69
2023-05-05T04:07:31.927Z,101575.06
2023-05-05T04:10:15.540Z,101581.00
2023-05-05T04:12:59.338Z,101585.38
2023-05-05T04:15:46.235Z,101580.16
2023-05-05T04:18:31.415Z,101569.50
2023-05-05T04:21:17.820Z,101569.44
2023-05-05T04:24:01.638Z,101575.75
2023-05-05T04:26:45.748Z,101574.06
2023-05-05T04:29:29.403Z,101573.94
2023-05-05T04:32:13.418Z,101583.97
2023-05-05T04:34:56.959Z,101584.53
2023-05-05T04:37:41.251Z,101587.91
2023-05-05T04:40:26.404Z,101594.31
2023-05-05T04:43:10.934Z,101597.06
2023-05-05T04:45:55.875Z,101593.84
2023-05-05T04:48:43.327Z,101609.44
2023-05-05T04:51:27.820Z,101607.09
2023-05-05T04:54:11.557Z,101600.13
2023-05-05T04:56:55.824Z,101609.44
2023-05-05T04:59:39.346Z,101610.13
2023-05-05T05:02:22.943Z,101619.13
2023-05-05T05:05:07.479Z,101621.28
2023-05-05T05:07:51.189Z,101618.16
2023-05-05T05:10:36.514Z,101622.28
2023-05-05T05:13:20.354Z,101620.66
2023-05-05T05:16:04.331Z,101619.88
2023-05-05T05:18:47.964Z,101614.59
2023-05-05T05:21:31.880Z,101617.00
2023-05-05T05:24:16.452Z,101613.06
2023-05-05T05:27:00.453Z,101613.56
2023-05-05T05:29:44.335Z,101619.84
2023-05-05T05:32:28.142Z,101618.78
2023-05-05T05:35:12.246Z,101624.06
2023-05-05T05:37:56.407Z,101620.38
2023-05-05T05:40:40.980Z,101626.47
2023-05-05T05:43:24.717Z,101628.91
2023-05-05T05:46:09.456Z,101624.06
2023-05-05T05:48:55.113Z,101624.69
2023-05-05T05:51:38.802Z,101627.72
2023-05-05T05:54:22.399Z,101622.50
2023-05-05T05:57:07.037Z,101631.16
2023-05-05T05:59:50.992Z,101622.97
2023-05-05T06:02:34.801Z,101620.47
2023-05-05T06:05:18.583Z,101614.16
2023-05-05T06:08:03.407Z,101610.00
2023-05-05T06:10:48.970Z,101613.47
2023-05-05T06:13:35.602Z,101615.63
2023-05-05T06:16:21.718Z,101609.88
2023-05-05T06:19:09.633Z,101623.88
2023-05-05T06:21:53.716Z,101625.03
2023-05-05T06:24:37.248Z,101618.47
2023-05-05T06:27:20.861Z,101627.94
2023-05-05T06:30:04.906Z,101628.41
2023-05-05T06:32:48.487Z,101621.03
2023-05-05T06:35:32.211Z,101615.88
2023-05-05T06:38:16.055Z,101615.72
2023-05-05T06:40:59.694Z,101615.41
2023-05-05T06:43:44.420Z,101624.75
2023-05-05T06:46:30.488Z,101625.81
2023-05-05T06:49:14.145Z,101626.63
2023-05-05T06:51:57.648Z,101624.88
2023-05-05T06:54:41.434Z,101617.78
2023-05-05T06:57:25.780Z,101621.47
2023-05-05T07:00:11.545Z,101621.06
2023-05-05T07:02:55.303Z,101618.22
2023-05-05T07:05:38.862Z,101617.34
2023-05-05T07:08:22.402Z,101617.31
2023-05-05T07:11:06.121Z,101624.81
2023-05-05T07:13:49.645Z,101627.88
2023-05-05T07:16:34.882Z,101627.72
2023-05-05T07:19:18.517Z,101628.84
2023-05-05T07:22:02.085Z,101629.81
2023-05-05T07:24:45.630Z,101627.00
2023-05-05T07:27:29.373Z,101634.38
2023-05-05T07:30:17.340Z,101633.56
2023-05-05T07:33:01.972Z,101641.69
2023-05-05T07:35:45.837Z,101637.72
2023-05-05T07:38:29.435Z,101636.41
2023-05-05T07:41:13.320Z,101636.47
2023-05-05T07:43:56.813Z,101641.91
2023-05-05T07:46:40.490Z,101633.44
2023-05-05T07:49:24.092Z,101640.94
2023-05-05T07:52:07.662Z,101643.53
2023-05-05T07:54:51.182Z,101649.31
2023-05-05T07:57:34.780Z,101654.44
2023-05-05T08:00:19.663Z,101649.78
2023-05-05T08:03:07.045Z,101655.38
2023-05-05T08:05:55.669Z,101648.09
2023-05-05T08:08:39.224Z,101654.94
2023-05-05T08:11:22.834Z,101642.75
2023-05-05T08:14:07.975Z,101627.25
2023-05-05T08:16:51.547Z,101636.50
2023-05-05T08:19:35.132Z,101641.44
2023-05-05T08:22:18.862Z,101627.63
2023-05-05T08:25:02.405Z,101624.06
2023-05-05T08:27:46.757Z,101632.72
2023-05-05T08:30:31.171Z,101625.03
2023-05-05T08:33:14.736Z,101621.56
2023-05-05T08:35:58.452Z,101622.88
2023-05-05T08:38:42.305Z,101626.81
2023-05-05T08:41:26.379Z,101626.88
2023-05-05T08:44:11.742Z,101626.59
2023-05-05T08:46:55.784Z,101629.06
2023-05-05T08:49:46.696Z,101619.25
2023-05-05T08:52:41.988Z,101618.06
2023-05-05T08:55:29.466Z,101614.03
2023-05-05T08:58:15.566Z,101608.47
2023-05-05T09:01:01.634Z,101618.84
2023-05-05T09:03:46.242Z,101619.63
2023-05-05T09:06:32.433Z,101617.25
2023-05-05T09:09:15.937Z,101611.88
2023-05-05T09:11:59.853Z,101614.00
2023-05-05T09:14:43.357Z,101616.66
2023-05-05T09:17:27.455Z,101617.16
2023-05-05T09:20:14.750Z,101612.06
2023-05-05T09:22:58.437Z,101618.38
2023-05-05T09:25:46.195Z,101610.47
2023-05-05T09:28:29.774Z,101616.28
2023-05-05T09:31:16.366Z,101610.56
2023-05-05T09:34:01.286Z,101616.53
2023-05-05T09:36:49.491Z,101615.34
2023-05-05T09:39:33.064Z,101611.66
2023-05-05T09:42:19.900Z,101613.66
2023-05-05T09:45:05.373Z,101615.72
2023-05-05T09:47:49.469Z,101609.94
2023-05-05T09:50:45.842Z,101594.22
2023-05-05T09:53:41.658Z,101599.63
2023-05-05T09:56:42.928Z,101598.16
2023-05-05T09:59:26.455Z,101603.88
2023-05-05T10:02:12.966Z,101595.25
2023-05-05T10:05:09.542Z,101602.31
2023-05-05T10:07:53.224Z,101598.44
2023-05-05T10:10:48.335Z,101601.09
2023-05-05T10:13:41.113Z,101588.66
2023-05-05T10:16:27.454Z,101591.00
2023-05-05T10:19:15.225Z,101594.19
2023-05-05T10:22:08.386Z,101575.50
2023-05-05T10:25:03.570Z,101577.06
2023-05-05T10:27:53.082Z,101578.78
2023-05-05T10:30:44.306Z,101587.00
2023-05-05T10:34:00.413Z,101576.66
2023-05-05T10:36:45.235Z,101574.59
2023-05-05T10:39:29.409Z,101576.25
2023-05-05T10:42:15.913Z,101581.84
2023-05-05T10:44:59.509Z,101580.22
2023-05-05T10:47:44.668Z,101568.34
2023-05-05T10:50:44.437Z,101571.13
2023-05-05T10:53:55.864Z,101567.91
2023-05-05T10:56:49.804Z,101562.63
2023-05-05T10:59:46.754Z,101555.91
2023-05-05T11:06:09.226Z,101559.81
2023-05-05T11:08:55.992Z,101553.59
2023-05-05T11:12:03.100Z,101548.41
2023-05-05T11:14:46.616Z,101547.47
2023-05-05T11:17:47.229Z,101544.22
2023-05-05T11:20:43.730Z,101544.78
2023-05-05T11:23:29.293Z,101529.78
2023-05-05T11:26:14.850Z,101538.88
2023-05-05T11:29:05.367Z,101531.69
2023-05-05T11:32:13.109Z,101538.31
2023-05-05T11:34:56.977Z,101534.88
2023-05-05T11:40:46.640Z,101522.16
2023-05-05T11:43:30.291Z,101524.09
2023-05-05T11:46:17.649Z,101524.19
2023-05-05T11:49:01.807Z,101510.75
2023-05-05T11:52:16.264Z,101517.66
2023-05-05T11:55:01.740Z,101505.38
2023-05-05T11:57:45.333Z,101507.38
2023-05-05T12:00:34.005Z,101506.97
2023-05-05T12:03:17.731Z,101500.44
2023-05-05T12:06:01.534Z,101500.50
2023-05-05T12:08:45.119Z,101484.75
2023-05-05T12:11:28.677Z,101483.84
2023-05-05T12:14:12.303Z,101489.41
2023-05-05T12:17:08.124Z,101486.69
2023-05-05T12:19:54.516Z,101485.47
2023-05-05T12:22:50.170Z,101483.56
2023-05-05T12:25:44.087Z,101463.00
2023-05-05T12:28:49.499Z,101470.16
2023-05-05T12:31:39.876Z,101472.75
2023-05-05T12:34:24.370Z,101470.16
2023-05-05T12:37:08.021Z,101463.56
2023-05-05T12:39:52.449Z,101462.66
2023-05-05T12:42:40.145Z,101470.75
2023-05-05T12:45:23.777Z,101472.41
2023-05-05T12:48:22.976Z,101482.59
2023-05-05T12:51:23.701Z,101458.56
2023-05-05T12:54:10.182Z,101463.81
2023-05-05T12:56:53.725Z,101461.63
2023-05-05T12:59:37.249Z,101464.06
2023-05-05T13:02:21.277Z,101456.81
2023-05-05T13:05:05.631Z,101451.03
2023-05-05T13:07:52.347Z,101459.22
2023-05-05T13:10:36.361Z,101450.88
2023-05-05T13:13:19.900Z,101454.91
2023-05-05T13:16:03.639Z,101431.13
2023-05-05T13:18:49.760Z,101440.50
2023-05-05T13:21:33.505Z,101436.41
2023-05-05T13:27:04.583Z,101435.81
2023-05-05T13:29:48.213Z,101427.00
2023-05-05T13:32:31.822Z,101424.31
2023-05-05T13:35:16.601Z,101415.44
2023-05-05T13:38:00.291Z,101421.22
2023-05-05T13:40:43.808Z,101419.69
2023-05-05T13:43:27.374Z,101406.03
2023-05-05T13:49:00.467Z,101399.41
2023-05-05T13:51:45.301Z,101405.38
2023-05-05T13:54:28.828Z,101392.28
2023-05-05T13:57:12.514Z,101393.91
2023-05-05T13:59:56.086Z,101395.16
2023-05-05T14:02:39.624Z,101392.66
2023-05-05T14:05:25.839Z,101395.88
2023-05-05T14:08:10.291Z,101382.47
2023-05-05T14:10:53.791Z,101380.53
2023-05-05T14:13:37.337Z,101375.78
2023-05-05T14:16:20.985Z,101364.16
2023-05-05T14:19:04.626Z,101366.09
2023-05-05T14:21:48.182Z,101361.84
2023-05-05T14:24:31.731Z,101358.25
2023-05-05T14:27:15.498Z,101366.94
2023-05-05T14:29:59.023Z,101364.66
2023-05-05T14:32:43.145Z,101358.53
2023-05-05T14:35:26.729Z,101358.50
2023-05-05T14:38:10.388Z,101354.03
2023-05-05T14:40:54.096Z,101362.72
2023-05-05T14:43:37.601Z,101358.00
2023-05-05T14:46:21.422Z,101362.19
2023-05-05T14:49:04.944Z,101352.31
2023-05-05T14:51:49.056Z,101357.03
2023-05-05T14:54:38.719Z,101350.78
2023-05-05T14:57:24.550Z,101351.16
2023-05-05T15:00:09.534Z,101351.50
2023-05-05T15:02:53.114Z,101345.94
2023-05-05T15:05:37.364Z,101346.44
2023-05-05T15:08:21.215Z,101353.19
2023-05-05T15:11:06.229Z,101351.25
2023-05-05T15:13:49.793Z,101344.06
2023-05-05T15:16:35.226Z,101348.00
2023-05-05T15:19:19.089Z,101341.25
2023-05-05T15:22:02.660Z,101347.19
2023-05-05T15:24:46.465Z,101340.88
2023-05-05T15:27:31.754Z,101329.31
2023-05-05T15:30:15.968Z,101336.88
2023-05-05T15:32:59.643Z,101337.69
2023-05-05T15:35:43.302Z,101336.09
2023-05-05T15:38:29.211Z,101330.94
2023-05-05T15:41:12.771Z,101330.94
2023-05-05T15:43:56.354Z,101325.00
2023-05-05T15:46:41.092Z,101328.19
2023-05-05T15:49:27.079Z,101333.75
2023-05-05T15:52:10.721Z,101329.78
2023-05-05T15:54:54.315Z,101328.38
2023-05-05T15:57:39.930Z,101330.81
2023-05-05T16:00:23.748Z,101319.38
2023-05-05T16:03:08.949Z,101326.09
2023-05-05T16:05:52.817Z,101323.66
2023-05-05T16:08:36.453Z,101323.19
2023-05-05T16:11:23.652Z,101329.59
2023-05-05T16:14:07.368Z,101318.06
2023-05-05T16:16:50.964Z,101323.13
2023-05-05T16:19:34.993Z,101319.81
2023-05-05T16:22:18.743Z,101322.28
2023-05-05T16:25:06.645Z,101322.34
2023-05-05T16:27:50.672Z,101319.81
2023-05-05T16:30:34.532Z,101326.72
2023-05-05T16:33:18.180Z,101321.84
2023-05-05T16:36:01.658Z,101320.75
2023-05-05T16:38:45.367Z,101318.69
2023-05-05T16:41:29.162Z,101307.44
2023-05-05T16:44:12.969Z,101313.91
2023-05-05T16:46:56.553Z,101315.56
2023-05-05T16:49:40.075Z,101311.28
2023-05-05T16:52:23.633Z,101311.81
2023-05-05T16:55:07.843Z,101312.78
2023-05-05T16:57:51.728Z,101320.34
2023-05-05T17:00:35.557Z,101316.72
2023-05-05T17:03:20.548Z,101317.09
2023-05-05T17:06:04.316Z,101310.66
2023-05-05T17:08:47.845Z,101315.88
2023-05-05T17:11:31.860Z,101308.31
2023-05-05T17:14:15.448Z,101306.16
2023-05-05T17:16:59.056Z,101305.59
2023-05-05T17:19:42.871Z,101311.50
2023-05-05T17:22:26.466Z,101312.75
2023-05-05T17:25:10.880Z,101309.34
2023-05-05T17:27:55.720Z,101302.59
2023-05-05T17:30:39.315Z,101309.63
2023-05-05T17:33:22.902Z,101305.66
2023-05-05T17:36:07.053Z,101311.06
2023-05-05T17:38:50.577Z,101304.53
2023-05-05T17:41:34.162Z,101301.13
2023-05-05T17:44:17.733Z,101301.75
2023-05-05T17:47:02.966Z,101305.66
2023-05-05T17:49:46.527Z,101304.28
2023-05-05T17:52:30.124Z,101318.03
2023-05-05T17:55:13.862Z,101314.66
2023-05-05T17:57:59.119Z,101321.28
2023-05-05T18:00:42.660Z,101312.63
2023-05-05T18:03:26.458Z,101315.53
2023-05-05T18:06:10.087Z,101324.41
2023-05-05T18:08:53.643Z,101324.06
2023-05-05T18:11:37.622Z,101321.00
2023-05-05T18:14:22.563Z,101314.59
2023-05-05T18:17:06.258Z,101313.31
2023-05-05T18:19:49.772Z,101319.28
2023-05-05T18:22:34.296Z,101325.81
2023-05-05T18:25:19.123Z,101335.41
2023-05-05T18:28:02.972Z,101329.06
2023-05-05T18:30:46.591Z,101327.00
2023-05-05T18:33:30.126Z,101329.69
2023-05-05T18:36:13.668Z,101329.69
2023-05-05T18:38:57.331Z,101338.28
2023-05-05T18:41:41.184Z,101333.56
2023-05-05T18:44:26.676Z,101322.72
2023-05-05T18:47:11.263Z,101324.16
2023-05-05T18:49:54.947Z,101321.16
2023-05-05T18:52:38.520Z,101338.25
2023-05-05T18:55:22.175Z,101336.97
2023-05-05T18:58:05.821Z,101342.28
2023-05-05T19:00:49.446Z,101343.13
2023-05-05T19:03:34.818Z,101337.13
2023-05-05T19:06:18.831Z,101343.97
2023-05-05T19:09:02.634Z,101351.53
2023-05-05T19:11:46.225Z,101354.03
2023-05-05T19:14:29.939Z,101341.97
2023-05-05T19:17:13.553Z,101358.66
2023-05-05T19:19:57.222Z,101365.69
2023-05-05T19:22:40.986Z,101367.56
2023-05-05T19:25:24.549Z,101359.03
2023-05-05T19:28:08.321Z,101361.66
2023-05-05T19:30:52.433Z,101351.91
2023-05-05T19:33:36.652Z,101357.66
2023-05-05T19:36:20.202Z,101362.53
2023-05-05T19:39:05.027Z,101370.81
2023-05-05T19:41:48.619Z,101377.75
2023-05-05T19:44:32.224Z,101378.69
2023-05-05T19:47:15.896Z,101384.19
2023-05-05T19:49:59.398Z,101383.88
2023-05-05T19:52:42.988Z,101384.78
2023-05-05T19:55:26.973Z,101383.03
2023-05-05T19:58:10.551Z,101376.25
2023-05-05T20:00:54.104Z,101379.19
2023-05-05T20:03:37.805Z,101375.91
2023-05-05T20:06:22.894Z,101368.03
2023-05-05T20:09:06.597Z,101374.97
2023-05-05T20:11:50.176Z,101364.13
2023-05-05T20:14:33.719Z,101373.38
2023-05-05T20:17:20.292Z,101365.91
2023-05-05T20:20:04.173Z,101363.63
2023-05-05T20:22:49.768Z,101376.00
2023-05-05T20:25:33.371Z,101363.19
2023-05-05T20:28:16.933Z,101365.84
2023-05-05T20:31:03.724Z,101371.34
2023-05-05T20:33:47.504Z,101375.81
2023-05-05T20:36:31.459Z,101360.56
2023-05-05T20:39:16.089Z,101360.47
2023-05-05T20:41:59.618Z,101361.84
2023-05-05T20:44:43.237Z,101363.81
2023-05-05T20:47:27.096Z,101361.06
2023-05-05T20:50:11.735Z,101356.34
2023-05-05T20:52:55.707Z,101363.22
2023-05-05T20:55:39.707Z,101355.81
2023-05-05T20:58:23.260Z,101362.31
2023-05-05T21:01:06.866Z,101362.00
2023-05-05T21:03:50.610Z,101370.09
2023-05-05T21:06:34.138Z,101378.59
2023-05-05T21:09:17.697Z,101371.47
2023-05-05T21:12:02.497Z,101369.06
2023-05-05T21:14:46.140Z,101366.22
2023-05-05T21:17:30.225Z,101374.13
2023-05-05T21:20:14.148Z,101376.84
2023-05-05T21:22:57.676Z,101371.81
2023-05-05T21:25:41.361Z,101360.72
2023-05-05T21:28:24.886Z,101360.38
2023-05-05T21:33:54.903Z,101359.94
2023-05-05T21:36:38.796Z,101351.69
2023-05-05T21:39:22.439Z,101353.94
2023-05-05T21:42:08.402Z,101342.38
2023-05-05T21:44:51.976Z,101345.94
2023-05-05T21:47:35.635Z,101346.00
2023-05-05T21:50:20.017Z,101337.00
2023-05-05T21:53:03.613Z,101352.22
2023-05-05T21:55:48.073Z,101352.72
2023-05-05T21:58:31.576Z,101354.53
2023-05-05T22:01:15.125Z,101360.94
2023-05-05T22:03:59.014Z,101365.19
2023-05-05T22:06:42.761Z,101350.19
2023-05-05T22:09:26.342Z,101356.34
2023-05-05T22:12:09.958Z,101356.31
2023-05-05T22:14:53.493Z,101356.63
2023-05-05T22:17:37.073Z,101368.22
2023-05-05T22:20:20.637Z,101364.41
2023-05-05T22:23:04.336Z,101385.81
2023-05-05T22:25:47.862Z,101398.47
2023-05-05T22:28:31.430Z,101395.22
2023-05-05T22:31:15.065Z,101390.66
2023-05-05T22:33:58.663Z,101384.47
2023-05-05T22:36:42.363Z,101383.97
2023-05-05T22:39:25.879Z,101375.88
2023-05-05T22:42:09.699Z,101386.06
2023-05-05T22:44:53.497Z,101383.44
2023-05-05T22:47:37.323Z,101391.41
2023-05-05T22:50:20.952Z,101389.00
2023-05-05T22:53:04.623Z,101388.09
2023-05-05T22:55:48.256Z,101379.97
2023-05-05T22:58:31.835Z,101370.34
2023-05-05T23:01:15.418Z,101379.56
2023-05-05T23:03:59.101Z,101366.03
2023-05-05T23:06:42.692Z,101367.09
2023-05-05T23:09:26.355Z,101369.28
2023-05-05T23:12:09.919Z,101355.13
2023-05-05T23:14:53.462Z,101354.00
2023-05-05T23:17:37.041Z,101351.25
2023-05-05T23:20:20.836Z,101344.03
2023-05-05T23:23:04.850Z,101345.91
2023-05-05T23:25:48.467Z,101342.28
2023-05-05T23:28:31.953Z,101349.88
2023-05-05T23:31:15.589Z,101348.84
2023-05-05T23:33:59.225Z,101348.31
2023-05-05T23:36:43.795Z,101350.94
2023-05-05T23:39:27.448Z,101335.38
2023-05-05T23:42:11.026Z,101338.53
2023-05-05T23:44:54.581Z,101322.41
2023-05-05T23:47:38.136Z,101332.19
2023-05-05T23:50:22.274Z,101334.13
2023-05-05T23:53:05.875Z,101335.34
2023-05-05T23:55:49.402Z,101331.25
2023-05-05T23:58:32.925Z,101330.41
